Time;durP1;ratioP1;P1;durP2;ratioP2;P2;SDS_P1;SDS_P2;PMS_P1;PMS_P2;Temp;Humidity;BMP_temperature;BMP_pressure;BME280_temperature;BME280_humidity;BME280_pressure;Samples;Min_cycle;Max_cycle;Signal;HPM_P1;HPM_P2
2022/08/28 00:01:57;;;;;;;14.20;6.20;;;15.40;99.90;;;;;;5118954;27;20092;-82
2022/08/28 00:04:24;;;;;;;10.93;5.65;;;15.40;99.90;;;;;;5114961;28;20048;-81
2022/08/28 00:06:50;;;;;;;12.73;5.40;;;15.30;99.90;;;;;;5115599;28;20400;-80
2022/08/28 00:09:15;;;;;;;12.20;5.60;;;15.30;99.90;;;;;;5108666;28;20479;-81
2022/08/28 00:11:44;;;;;;;13.80;5.70;;;15.20;99.90;;;;;;5110903;28;20050;-80
2022/08/28 00:14:13;;;;;;;10.48;5.88;;;15.20;99.90;;;;;;5095952;28;20048;-81
2022/08/28 00:16:39;;;;;;;13.07;5.60;;;15.20;99.90;;;;;;5091423;28;20039;-81
2022/08/28 00:19:05;;;;;;;13.65;6.30;;;15.10;99.90;;;;;;5112375;28;20050;-81
2022/08/28 00:21:32;;;;;;;13.35;5.55;;;15.00;99.90;;;;;;5114161;28;20043;-81
2022/08/28 00:23:58;;;;;;;9.77;5.17;;;15.00;99.90;;;;;;5110656;27;20036;-81
2022/08/28 00:29:11;;;;;;;9.93;5.38;;;15.00;99.90;;;;;;5092036;28;20367;-81
2022/08/28 00:31:38;;;;;;;13.00;5.05;;;15.00;99.90;;;;;;5113954;28;20400;-80
2022/08/28 00:34:07;;;;;;;11.00;6.00;;;15.00;99.90;;;;;;5111809;28;20064;-79
2022/08/28 00:36:35;;;;;;;12.68;5.55;;;15.00;99.90;;;;;;5079464;28;20131;-81
2022/08/28 00:39:01;;;;;;;14.38;5.38;;;15.00;99.90;;;;;;5106964;28;20036;-80
2022/08/28 00:41:30;;;;;;;9.88;5.32;;;15.00;99.90;;;;;;5110726;27;20044;-81
2022/08/28 00:44:15;;;;;;;10.68;5.38;;;15.00;99.90;;;;;;5110837;28;20043;-81
2022/08/28 00:46:43;;;;;;;12.88;5.47;;;14.90;99.90;;;;;;5114814;28;20062;-80
2022/08/28 00:49:10;;;;;;;10.65;5.60;;;14.90;99.90;;;;;;5109980;28;20047;-81
2022/08/28 00:54:25;;;;;;;11.32;5.70;;;14.80;99.90;;;;;;5111956;28;20054;-81
2022/08/28 00:56:53;;;;;;;14.65;6.10;;;14.80;99.90;;;;;;5091828;28;20498;-81
2022/08/28 00:59:24;;;;;;;14.35;5.90;;;14.80;99.90;;;;;;5109404;27;20042;-81
2022/08/28 01:01:55;;;;;;;11.95;5.57;;;14.70;99.90;;;;;;5101618;28;20082;-81
2022/08/28 01:04:24;;;;;;;15.10;6.35;;;14.70;99.90;;;;;;5112097;28;20039;-80
2022/08/28 01:06:52;;;;;;;11.45;5.30;;;14.70;99.90;;;;;;5092565;28;20040;-80
2022/08/28 01:09:20;;;;;;;11.90;6.20;;;14.70;99.90;;;;;;5108071;27;20510;-81
2022/08/28 01:11:50;;;;;;;10.88;5.70;;;14.70;99.90;;;;;;5111688;28;20126;-81
2022/08/28 01:14:21;;;;;;;13.52;6.43;;;14.60;99.90;;;;;;5106106;28;20039;-81
2022/08/28 01:16:51;;;;;;;14.75;6.53;;;14.60;99.90;;;;;;5102110;28;20124;-81
2022/08/28 01:19:27;;;;;;;12.02;6.15;;;14.60;99.90;;;;;;5110977;28;20063;-81
2022/08/28 01:22:30;;;;;;;11.13;6.07;;;14.60;99.90;;;;;;5109654;28;20073;-81
2022/08/28 01:24:59;;;;;;;12.85;6.03;;;14.50;99.90;;;;;;5108600;28;20218;-81
2022/08/28 01:27:26;;;;;;;14.70;6.93;;;14.50;99.90;;;;;;5089972;28;20043;-81
2022/08/28 01:29:54;;;;;;;13.10;6.13;;;14.50;99.90;;;;;;5111858;28;20049;-81
2022/08/28 01:32:48;;;;;;;13.32;5.95;;;14.50;99.90;;;;;;5108236;27;20154;-81
2022/08/28 01:35:20;;;;;;;11.48;5.97;;;14.40;99.90;;;;;;5081233;28;20533;-82
2022/08/28 01:37:51;;;;;;;12.02;5.88;;;14.30;99.90;;;;;;5108360;28;20027;-81
2022/08/28 01:40:26;;;;;;;11.68;5.90;;;14.30;99.90;;;;;;5091671;28;20047;-81
2022/08/28 01:42:54;;;;;;;11.10;5.75;;;14.30;99.90;;;;;;5107970;27;20057;-82
2022/08/28 01:45:26;;;;;;;11.68;6.10;;;14.30;99.90;;;;;;5110665;27;20067;-81
2022/08/28 01:47:51;;;;;;;10.52;5.70;;;14.20;99.90;;;;;;5093937;28;20042;-82
2022/08/28 01:50:19;;;;;;;15.52;6.03;;;14.10;99.90;;;;;;5106492;28;20040;-81
2022/08/28 01:52:45;;;;;;;;;;;14.10;99.90;;;;;;5109216;28;20092;-80
2022/08/28 01:55:14;;;;;;;12.25;5.93;;;14.00;99.90;;;;;;5088525;28;19927;-81
2022/08/28 01:57:52;;;;;;;9.65;5.80;;;13.90;99.90;;;;;;5094369;28;20048;-81
2022/08/28 02:00:26;;;;;;;11.90;5.68;;;14.00;99.90;;;;;;5112588;28;20101;-81
2022/08/28 02:02:54;;;;;;;9.95;5.53;;;13.90;99.90;;;;;;5096410;28;20047;-81
2022/08/28 02:05:25;;;;;;;11.85;5.65;;;13.90;99.90;;;;;;5092202;28;20054;-81
2022/08/28 02:07:54;;;;;;;11.77;5.43;;;13.80;99.90;;;;;;5113808;28;20047;-81
2022/08/28 02:10:24;;;;;;;10.25;5.18;;;13.80;99.90;;;;;;5097328;28;20051;-82
2022/08/28 02:12:54;;;;;;;9.65;5.15;;;13.80;99.90;;;;;;5105950;28;20232;-81
2022/08/28 02:15:22;;;;;;;11.18;5.90;;;13.80;99.90;;;;;;5101528;28;20392;-81
2022/08/28 02:17:48;;;;;;;15.02;5.28;;;13.80;99.90;;;;;;5084059;28;20047;-81
2022/08/28 02:20:14;;;;;;;9.85;5.20;;;13.80;99.90;;;;;;5090371;28;20043;-81
2022/08/28 02:22:40;;;;;;;9.73;5.43;;;13.80;99.90;;;;;;5079776;28;20043;-82
2022/08/28 02:25:08;;;;;;;9.45;5.03;;;13.80;99.90;;;;;;5088116;28;20045;-81
2022/08/28 02:27:37;;;;;;;;;;;13.90;99.90;;;;;;5108263;28;20053;-81
2022/08/28 02:30:08;;;;;;;9.82;4.85;;;13.80;99.90;;;;;;5111258;27;19923;-81
2022/08/28 02:32:35;;;;;;;8.18;4.43;;;13.80;99.90;;;;;;5087772;28;20127;-81
2022/08/28 02:35:04;;;;;;;8.82;4.95;;;13.80;99.90;;;;;;5108602;27;20079;-81
2022/08/28 02:37:30;;;;;;;10.50;4.95;;;13.80;99.90;;;;;;5089638;28;20120;-81
2022/08/28 02:40:02;;;;;;;8.25;4.30;;;13.70;99.90;;;;;;5092510;28;20512;-82
2022/08/28 02:42:31;;;;;;;9.90;4.63;;;13.80;99.90;;;;;;5091396;28;20491;-81
2022/08/28 02:45:03;;;;;;;10.65;4.90;;;13.80;99.90;;;;;;5101148;28;20043;-81
2022/08/28 02:47:36;;;;;;;10.73;4.90;;;13.80;99.90;;;;;;5080528;28;20104;-81
2022/08/28 02:50:09;;;;;;;11.20;4.78;;;13.70;99.90;;;;;;5102514;28;20158;-81
2022/08/28 02:52:40;;;;;;;11.23;4.88;;;13.80;99.90;;;;;;5087711;28;20052;-81
2022/08/28 02:55:11;;;;;;;12.57;5.25;;;13.80;99.90;;;;;;5109696;28;20042;-80
2022/08/28 02:57:37;;;;;;;12.07;4.80;;;13.70;99.90;;;;;;5112610;28;20101;-81
2022/08/28 03:00:14;;;;;;;12.00;5.03;;;13.80;99.90;;;;;;5095332;28;20079;-81
2022/08/28 03:02:49;;;;;;;11.70;5.07;;;13.70;99.90;;;;;;5111529;28;20494;-80
2022/08/28 03:05:19;;;;;;;11.23;5.18;;;13.70;99.90;;;;;;5090799;28;20044;-81
2022/08/28 03:07:45;;;;;;;8.70;4.65;;;13.70;99.90;;;;;;5093753;28;20039;-81
2022/08/28 03:10:14;;;;;;;11.27;4.85;;;13.70;99.90;;;;;;5104122;28;20080;-82
2022/08/28 03:12:40;;;;;;;12.57;5.32;;;13.70;99.90;;;;;;5089200;28;20503;-80
2022/08/28 03:15:07;;;;;;;11.18;5.00;;;13.70;99.90;;;;;;5109585;28;20063;-80
2022/08/28 03:17:36;;;;;;;11.00;4.80;;;13.60;99.90;;;;;;5086375;28;20036;-80
2022/08/28 03:20:07;;;;;;;9.65;4.97;;;13.70;99.90;;;;;;5110842;28;20055;-81
2022/08/28 03:25:18;;;;;;;10.02;5.10;;;13.60;99.90;;;;;;5089735;28;20075;-81
2022/08/28 03:27:44;;;;;;;12.13;5.18;;;13.60;99.90;;;;;;5109256;28;20034;-81
2022/08/28 03:30:11;;;;;;;14.55;5.70;;;13.50;99.90;;;;;;5111836;28;20533;-81
2022/08/28 03:32:37;;;;;;;12.02;5.10;;;13.50;99.90;;;;;;5094068;28;20035;-80
2022/08/28 03:35:04;;;;;;;11.95;5.35;;;13.50;99.90;;;;;;5113148;28;20046;-81
2022/08/28 03:37:30;;;;;;;;;;;13.40;99.90;;;;;;5112607;27;20071;-80
2022/08/28 03:39:56;;;;;;;9.00;5.20;;;13.40;99.90;;;;;;5094027;28;19937;-82
2022/08/28 03:42:23;;;;;;;10.95;5.13;;;13.30;99.90;;;;;;5110293;28;20787;-80
2022/08/28 03:44:52;;;;;;;7.68;4.50;;;13.30;99.90;;;;;;5094589;28;20047;-81
2022/08/28 03:47:18;;;;;;;8.13;4.70;;;13.30;99.90;;;;;;5109830;28;20028;-81
2022/08/28 03:49:44;;;;;;;10.55;5.10;;;13.30;99.90;;;;;;5098303;28;20095;-82
2022/08/28 03:52:10;;;;;;;10.68;5.07;;;13.30;99.90;;;;;;5086379;28;20573;-81
2022/08/28 03:54:36;;;;;;;11.77;5.05;;;13.20;99.90;;;;;;5108009;28;20082;-81
2022/08/28 03:57:03;;;;;;;10.48;5.10;;;13.20;99.90;;;;;;5102484;28;20056;-81
2022/08/28 03:59:29;;;;;;;15.23;5.10;;;13.20;99.90;;;;;;5109936;28;20032;-81
2022/08/28 04:01:55;;;;;;;9.65;4.95;;;13.20;99.90;;;;;;5107757;28;20096;-82
2022/08/28 04:04:23;;;;;;;8.90;4.40;;;13.20;99.90;;;;;;5113495;28;20050;-81
2022/08/28 04:06:49;;;;;;;10.90;4.80;;;13.10;99.90;;;;;;5107843;28;20621;-80
2022/08/28 04:09:14;;;;;;;9.73;4.85;;;13.10;99.90;;;;;;5108467;28;20032;-79
2022/08/28 04:11:41;;;;;;;9.23;4.00;;;13.10;99.90;;;;;;5103478;27;20047;-79
2022/08/28 04:14:10;;;;;;;12.27;4.65;;;13.10;99.90;;;;;;5097916;27;20051;-79
2022/08/28 04:16:37;;;;;;;9.15;4.90;;;13.00;99.90;;;;;;5108674;28;20047;-80
2022/08/28 04:19:03;;;;;;;7.97;4.28;;;13.00;99.90;;;;;;5111549;28;20152;-80
2022/08/28 04:21:28;;;;;;;6.75;4.43;;;13.00;99.90;;;;;;5106746;28;20126;-80
2022/08/28 04:23:54;;;;;;;8.55;3.90;;;13.10;99.90;;;;;;5088355;28;20039;-80
2022/08/28 04:26:23;;;;;;;9.38;4.28;;;13.10;99.90;;;;;;5106404;28;20035;-79
2022/08/28 04:28:49;;;;;;;9.55;4.50;;;13.10;99.90;;;;;;5106434;27;20101;-79
2022/08/28 04:31:16;;;;;;;11.93;5.18;;;13.10;99.90;;;;;;5104570;28;20039;-80
2022/08/28 04:33:42;;;;;;;14.55;5.47;;;13.10;99.90;;;;;;5109157;28;20035;-80
2022/08/28 04:36:11;;;;;;;13.27;5.63;;;13.10;99.90;;;;;;5088898;28;20066;-80
2022/08/28 04:38:37;;;;;;;11.40;5.07;;;13.10;99.90;;;;;;5080429;28;20050;-80
2022/08/28 04:41:04;;;;;;;9.85;4.55;;;13.10;99.90;;;;;;5104100;28;20031;-79
2022/08/28 04:43:30;;;;;;;11.82;4.50;;;13.10;99.90;;;;;;5090436;28;20036;-80
2022/08/28 04:45:55;;;;;;;8.85;4.13;;;13.10;99.90;;;;;;5091111;28;20040;-80
2022/08/28 04:48:21;;;;;;;9.98;4.45;;;13.10;99.90;;;;;;5117203;28;20077;-79
2022/08/28 04:50:48;;;;;;;11.75;4.75;;;13.10;99.90;;;;;;5122088;28;20046;-79
2022/08/28 04:53:18;;;;;;;8.57;4.30;;;13.10;99.90;;;;;;5116365;28;20043;-80
2022/08/28 04:55:46;;;;;;;8.20;5.05;;;13.00;99.90;;;;;;5119942;28;20394;-79
2022/08/28 04:58:13;;;;;;;11.20;5.22;;;13.10;99.90;;;;;;5101296;28;20088;-80
2022/08/28 05:00:41;;;;;;;10.48;4.35;;;13.10;99.90;;;;;;5106226;28;20487;-80
2022/08/28 05:03:07;;;;;;;11.75;5.03;;;13.10;99.90;;;;;;5096092;28;20125;-80
2022/08/28 05:05:33;;;;;;;11.35;5.53;;;13.10;99.90;;;;;;5086197;28;20072;-79
2022/08/28 05:07:58;;;;;;;9.20;4.57;;;13.10;99.90;;;;;;5107544;28;20043;-80
2022/08/28 05:10:24;;;;;;;8.30;4.63;;;13.10;99.90;;;;;;5082274;28;20036;-79
2022/08/28 05:12:50;;;;;;;8.93;4.80;;;13.00;99.90;;;;;;5106017;28;20059;-80
2022/08/28 05:15:16;;;;;;;10.13;4.70;;;13.10;99.90;;;;;;5100397;28;20483;-79
2022/08/28 05:17:42;;;;;;;10.23;4.25;;;13.00;99.90;;;;;;5096472;27;20399;-80
2022/08/28 05:20:08;;;;;;;9.63;4.70;;;13.00;99.90;;;;;;5100834;28;20071;-80
2022/08/28 05:22:33;;;;;;;10.50;4.75;;;13.00;99.90;;;;;;5079969;28;20047;-79
2022/08/28 05:25:02;;;;;;;7.88;4.40;;;13.00;99.90;;;;;;5095458;28;20040;-80
2022/08/28 05:27:28;;;;;;;9.35;4.65;;;13.00;99.90;;;;;;5100283;28;20114;-79
2022/08/28 05:29:53;;;;;;;10.40;4.82;;;13.10;99.90;;;;;;5104164;28;20095;-79
2022/08/28 05:32:20;;;;;;;10.77;4.85;;;13.10;99.90;;;;;;5102126;27;20086;-81
2022/08/28 05:34:46;;;;;;;14.07;5.15;;;13.10;99.90;;;;;;5101099;28;20146;-81
2022/08/28 05:37:13;;;;;;;8.27;4.45;;;13.10;99.90;;;;;;5105536;28;20130;-80
2022/08/28 05:39:39;;;;;;;9.55;4.85;;;13.20;99.90;;;;;;5099215;28;20250;-80
2022/08/28 05:42:05;;;;;;;10.07;5.28;;;13.20;99.90;;;;;;5074858;28;20036;-72
2022/08/28 05:44:31;;;;;;;10.45;4.90;;;13.30;99.90;;;;;;5104828;28;20359;-76
2022/08/28 05:46:56;;;;;;;10.65;5.35;;;13.40;99.90;;;;;;5102015;28;20043;-76
2022/08/28 05:49:22;;;;;;;9.13;4.47;;;13.50;99.90;;;;;;5101156;27;20047;-75
2022/08/28 05:51:49;;;;;;;10.02;4.65;;;13.70;99.90;;;;;;5101310;28;20035;-75
2022/08/28 05:54:17;;;;;;;10.23;5.35;;;13.80;99.90;;;;;;5098200;28;20032;-75
2022/08/28 05:56:44;;;;;;;9.85;4.97;;;13.90;99.90;;;;;;5102185;28;20039;-75
2022/08/28 05:59:12;;;;;;;9.88;4.57;;;14.00;99.90;;;;;;5080841;28;20092;-73
2022/08/28 06:01:40;;;;;;;9.88;4.75;;;14.10;99.90;;;;;;5084594;28;20044;-76
2022/08/28 06:04:12;;;;;;;9.63;4.72;;;14.20;99.90;;;;;;5102095;28;20131;-75
2022/08/28 06:06:39;;;;;;;10.07;4.22;;;14.30;99.90;;;;;;5105592;28;20040;-74
2022/08/28 06:09:11;;;;;;;10.45;4.43;;;14.40;99.90;;;;;;5100194;28;20043;-76
2022/08/28 06:11:40;;;;;;;11.82;4.43;;;14.50;99.90;;;;;;5096850;28;20118;-76
2022/08/28 06:14:12;;;;;;;8.32;3.90;;;14.60;99.90;;;;;;5078692;28;20395;-74
2022/08/28 06:16:40;;;;;;;11.88;4.53;;;14.70;99.90;;;;;;5106495;28;20087;-76
2022/08/28 06:19:08;;;;;;;10.65;4.18;;;14.80;99.90;;;;;;5101546;28;20048;-75
2022/08/28 06:21:34;;;;;;;8.15;3.58;;;14.90;99.90;;;;;;5098818;27;20039;-76
2022/08/28 06:24:00;;;;;;;9.30;3.47;;;15.00;99.90;;;;;;5109829;27;20039;-77
2022/08/28 06:26:26;;;;;;;10.32;4.70;;;15.10;99.90;;;;;;5086803;28;20379;-78
2022/08/28 06:28:52;;;;;;;10.68;3.85;;;15.20;99.90;;;;;;5106859;28;20051;-78
2022/08/28 06:31:18;;;;;;;14.00;4.32;;;15.30;99.90;;;;;;5088573;28;20044;-74
2022/08/28 06:33:45;;;;;;;10.10;4.05;;;15.40;99.90;;;;;;5091090;28;20075;-73
2022/08/28 06:36:11;;;;;;;10.83;4.13;;;15.40;99.90;;;;;;5086380;28;20739;-78
2022/08/28 06:38:37;;;;;;;11.43;3.70;;;15.60;99.90;;;;;;5085568;28;20036;-76
2022/08/28 06:41:10;;;;;;;8.40;3.60;;;15.60;99.90;;;;;;5105657;28;20498;-75
2022/08/28 06:43:35;;;;;;;10.02;3.88;;;15.60;99.90;;;;;;5088995;28;20115;-75
2022/08/28 06:46:02;;;;;;;8.07;3.28;;;15.70;99.90;;;;;;5110564;28;20043;-75
2022/08/28 06:48:29;;;;;;;12.75;3.67;;;15.80;99.90;;;;;;5108612;28;20044;-77
2022/08/28 06:50:55;;;;;;;9.15;3.53;;;15.80;99.90;;;;;;5106892;28;20036;-77
2022/08/28 06:53:27;;;;;;;11.47;3.60;;;15.80;99.90;;;;;;5083343;28;20056;-79
2022/08/28 06:56:07;;;;;;;14.38;3.60;;;15.90;99.90;;;;;;5077369;28;20043;-78
2022/08/28 06:58:35;;;;;;;10.48;3.65;;;15.90;99.90;;;;;;5090433;28;20510;-77
2022/08/28 07:01:15;;;;;;;10.80;3.65;;;16.00;99.90;;;;;;5089128;28;20051;-80
2022/08/28 07:03:41;;;;;;;15.18;3.80;;;16.10;99.90;;;;;;5112663;28;20054;-77
2022/08/28 07:06:09;;;;;;;11.20;3.55;;;16.10;99.90;;;;;;5109729;28;20645;-78
2022/08/28 07:08:36;;;;;;;11.73;3.95;;;16.20;99.90;;;;;;5097160;28;20389;-79
2022/08/28 07:11:17;;;;;;;11.32;3.08;;;16.30;99.90;;;;;;5110707;28;20604;-81
2022/08/28 07:13:44;;;;;;;10.20;3.33;;;16.30;99.90;;;;;;5093537;28;20040;-79
2022/08/28 07:16:10;;;;;;;10.18;3.30;;;16.40;99.90;;;;;;5078707;28;20059;-79
2022/08/28 07:18:36;;;;;;;11.85;3.60;;;16.50;99.90;;;;;;5091208;28;20388;-81
2022/08/28 07:21:02;;;;;;;11.90;3.20;;;16.50;99.90;;;;;;5089306;28;20529;-83
2022/08/28 07:23:30;;;;;;;10.15;3.45;;;16.60;99.90;;;;;;5114160;28;20047;-82
2022/08/28 07:25:56;;;;;;;12.68;3.38;;;16.60;99.90;;;;;;5084598;28;20046;-82
2022/08/28 07:28:22;;;;;;;10.00;2.90;;;16.70;99.90;;;;;;5114287;28;20531;-83
2022/08/28 07:31:03;;;;;;;11.05;3.45;;;16.80;99.90;;;;;;5113257;28;20046;-84
2022/08/28 07:33:30;;;;;;;6.72;2.95;;;16.90;99.90;;;;;;5106097;28;20161;-83
2022/08/28 07:35:57;;;;;;;11.70;3.08;;;16.90;99.90;;;;;;5094684;28;20054;-80
2022/08/28 07:38:24;;;;;;;10.50;3.25;;;17.00;99.90;;;;;;5094936;28;20047;-77
2022/08/28 07:40:50;;;;;;;8.82;2.80;;;17.10;99.90;;;;;;5113848;28;20055;-77
2022/08/28 07:46:05;;;;;;;8.55;2.42;;;17.30;99.90;;;;;;5111632;28;20039;-86
2022/08/28 07:48:34;;;;;;;8.25;2.30;;;17.40;99.90;;;;;;5111191;28;20044;-78
2022/08/28 07:51:00;;;;;;;12.25;2.70;;;17.40;99.90;;;;;;5109113;28;20042;-77
2022/08/28 07:53:26;;;;;;;6.67;1.90;;;17.50;99.90;;;;;;5092195;28;20051;-77
2022/08/28 07:55:51;;;;;;;9.30;2.45;;;17.60;99.90;;;;;;5107380;27;20405;-78
2022/08/28 07:58:19;;;;;;;9.77;2.40;;;17.60;99.90;;;;;;5073863;28;20032;-79
2022/08/28 08:00:45;;;;;;;11.82;2.85;;;17.60;99.90;;;;;;5075029;28;20048;-80
2022/08/28 08:03:12;;;;;;;8.50;2.20;;;17.70;99.90;;;;;;5111642;28;20055;-80
2022/08/28 08:05:37;;;;;;;7.45;2.38;;;17.70;99.90;;;;;;5093567;28;20177;-80
2022/08/28 08:08:03;;;;;;;6.68;2.47;;;17.80;99.90;;;;;;5094042;28;20524;-80
2022/08/28 08:10:29;;;;;;;9.50;2.50;;;17.90;99.90;;;;;;5111151;27;20043;-80
2022/08/28 08:12:54;;;;;;;8.68;3.00;;;17.90;99.90;;;;;;5109519;28;20120;-80
2022/08/28 08:15:23;;;;;;;5.90;2.20;;;18.00;99.90;;;;;;5109335;28;20048;-80
2022/08/28 08:17:48;;;;;;;9.05;2.08;;;18.10;99.90;;;;;;5111941;28;20092;-80
2022/08/28 08:20:14;;;;;;;8.10;2.15;;;18.20;99.90;;;;;;5093090;28;20409;-81
2022/08/28 08:22:40;;;;;;;9.90;2.65;;;18.20;99.90;;;;;;5111186;28;20176;-81
2022/08/28 08:25:07;;;;;;;8.23;1.85;;;18.30;99.90;;;;;;5092990;28;20035;-82
2022/08/28 08:27:34;;;;;;;8.60;2.20;;;18.40;99.90;;;;;;5107465;28;20048;-81
2022/08/28 08:30:00;;;;;;;;;;;18.50;99.90;;;;;;5091770;28;20056;-81
2022/08/28 08:32:26;;;;;;;9.70;2.30;;;18.50;99.90;;;;;;5112161;28;19919;-80
2022/08/28 08:34:54;;;;;;;8.23;2.00;;;18.60;99.90;;;;;;5092910;28;20063;-80
2022/08/28 08:37:20;;;;;;;5.30;2.10;;;18.70;99.90;;;;;;5092223;28;20036;-80
2022/08/28 08:39:46;;;;;;;7.00;2.17;;;18.80;99.90;;;;;;5093486;28;20050;-80
2022/08/28 08:42:30;;;;;;;7.80;2.17;;;18.90;99.90;;;;;;5108804;28;20034;-80
2022/08/28 08:45:04;;;;;;;7.88;2.20;;;19.00;99.90;;;;;;5109375;28;20046;-79
2022/08/28 08:47:51;;;;;;;9.68;2.72;;;19.00;99.90;;;;;;5077678;28;20447;-80
2022/08/28 08:50:24;;;;;;;7.97;2.05;;;19.00;99.90;;;;;;5110589;28;20058;-80
2022/08/28 08:53:11;;;;;;;7.65;2.03;;;18.90;99.90;;;;;;5111181;28;20146;-80
2022/08/28 08:55:46;;;;;;;7.45;2.25;;;18.90;99.90;;;;;;5090943;28;20899;-79
2022/08/28 08:58:27;;;;;;;9.77;2.08;;;18.90;99.90;;;;;;5110120;28;20039;-80
2022/08/28 09:01:16;;;;;;;6.78;2.33;;;18.80;99.90;;;;;;5110667;28;20043;-79
2022/08/28 09:03:59;;;;;;;10.23;2.03;;;18.90;99.90;;;;;;5107512;28;20044;-79
2022/08/28 09:06:40;;;;;;;9.13;2.40;;;19.00;99.90;;;;;;5093015;28;20059;-80
2022/08/28 09:09:16;;;;;;;8.45;2.17;;;19.20;99.90;;;;;;5092351;28;20042;-80
2022/08/28 09:11:57;;;;;;;6.57;2.25;;;19.40;99.90;;;;;;5090174;28;20122;-80
2022/08/28 09:14:50;;;;;;;5.60;1.85;;;19.60;99.90;;;;;;5092956;28;20047;-80
2022/08/28 09:17:20;;;;;;;7.18;2.00;;;19.60;99.90;;;;;;5079874;28;20052;-80
2022/08/28 09:19:47;;;;;;;8.18;1.83;;;19.70;99.90;;;;;;5074632;28;20475;-80
2022/08/28 09:22:13;;;;;;;7.50;1.97;;;19.70;99.90;;;;;;5109343;28;20039;-80
2022/08/28 09:24:40;;;;;;;5.40;1.98;;;19.70;99.40;;;;;;5091271;28;20058;-80
2022/08/28 09:27:28;;;;;;;8.63;2.10;;;19.80;99.30;;;;;;5092123;28;20181;-80
2022/08/28 09:30:09;;;;;;;5.15;1.90;;;19.90;98.80;;;;;;5092100;28;20105;-79
2022/08/28 09:32:45;;;;;;;4.30;2.00;;;19.90;99.70;;;;;;5088203;28;20172;-80
2022/08/28 09:35:26;;;;;;;8.10;2.10;;;20.00;98.90;;;;;;5092459;28;20673;-80
2022/08/28 09:37:52;;;;;;;6.93;2.05;;;20.00;97.00;;;;;;5099935;28;20447;-79
2022/08/28 09:43:25;;;;;;;6.15;2.00;;;19.90;98.40;;;;;;5109095;28;20103;-79
2022/08/28 09:43:26;;;;;;;6.22;2.42;;;19.90;96.90;;;;;;5104521;28;20043;-79
2022/08/28 09:46:03;;;;;;;7.40;2.25;;;19.80;97.00;;;;;;5092160;28;20063;-79
2022/08/28 09:48:36;;;;;;;4.93;2.00;;;19.70;98.30;;;;;;5110004;28;20050;-79
2022/08/28 09:51:08;;;;;;;7.65;2.25;;;19.80;99.40;;;;;;5110339;28;20290;-79
2022/08/28 09:53:50;;;;;;;11.55;2.13;;;20.00;99.20;;;;;;5091207;28;20142;-79
2022/08/28 09:56:32;;;;;;;7.88;2.30;;;20.10;97.90;;;;;;5109857;28;20043;-79
2022/08/28 09:59:17;;;;;;;7.70;2.05;;;20.10;96.90;;;;;;5111192;28;20047;-79
2022/08/28 10:01:53;;;;;;;7.93;2.42;;;20.10;96.30;;;;;;5102720;28;20039;-79
2022/08/28 10:04:44;;;;;;;11.40;2.20;;;20.00;96.60;;;;;;5105785;28;20052;-79
2022/08/28 10:07:47;;;;;;;7.20;2.00;;;19.90;98.60;;;;;;5088742;28;20054;-80
2022/08/28 10:10:33;;;;;;;9.05;2.50;;;20.10;96.50;;;;;;5072247;28;20620;-80
2022/08/28 10:13:09;;;;;;;7.23;1.90;;;20.30;98.10;;;;;;5076161;28;20052;-81
2022/08/28 10:15:43;;;;;;;6.30;2.00;;;20.50;96.10;;;;;;5084651;28;21095;-81
2022/08/28 10:18:33;;;;;;;6.32;2.20;;;20.60;95.80;;;;;;5068432;28;20086;-80
2022/08/28 10:21:11;;;;;;;6.57;2.08;;;20.70;96.60;;;;;;5082556;28;20064;-78
2022/08/28 10:24:11;;;;;;;8.00;2.20;;;20.70;95.90;;;;;;5079957;28;20066;-77
2022/08/28 10:26:57;;;;;;;6.43;1.85;;;20.50;94.40;;;;;;5106590;28;20386;-81
2022/08/28 10:29:51;;;;;;;7.47;2.33;;;20.50;97.00;;;;;;5072303;28;20044;-78
2022/08/28 10:32:20;;;;;;;9.13;2.42;;;20.50;96.50;;;;;;5085512;28;20116;-83
2022/08/28 10:35:14;;;;;;;10.13;2.40;;;20.60;96.00;;;;;;5092559;27;20040;-82
2022/08/28 10:37:54;;;;;;;4.55;1.90;;;20.70;95.40;;;;;;5092006;28;20156;-80
2022/08/28 10:40:38;;;;;;;6.22;2.22;;;20.90;81.30;;;;;;5103589;28;20096;-82
2022/08/28 10:43:08;;;;;;;7.78;2.00;;;20.80;78.80;;;;;;5095334;28;20454;-80
2022/08/28 10:45:36;;;;;;;7.20;2.08;;;20.70;78.30;;;;;;5087692;28;20499;-79
2022/08/28 10:48:33;;;;;;;4.53;1.92;;;20.70;83.40;;;;;;5090996;28;20413;-78
2022/08/28 10:51:17;;;;;;;6.20;2.47;;;20.80;86.00;;;;;;5108493;28;20051;-81
2022/08/28 10:53:58;;;;;;;5.53;2.10;;;20.80;87.90;;;;;;5099000;28;20056;-80
2022/08/28 10:56:32;;;;;;;3.97;1.90;;;21.00;88.40;;;;;;5106886;28;20058;-79
2022/08/28 10:58:59;;;;;;;9.02;2.17;;;21.10;90.70;;;;;;5103990;28;20110;-83
2022/08/28 11:01:32;;;;;;;6.10;2.33;;;21.10;87.90;;;;;;5086758;28;20044;-79
2022/08/28 11:04:00;;;;;;;5.43;2.13;;;21.20;84.50;;;;;;5088612;28;20055;-75
2022/08/28 11:06:49;;;;;;;6.85;1.95;;;21.10;86.40;;;;;;5101229;28;20039;-76
2022/08/28 11:09:31;;;;;;;6.93;1.90;;;20.90;80.10;;;;;;5088677;28;20058;-76
2022/08/28 11:12:21;;;;;;;6.80;2.15;;;20.80;86.00;;;;;;5097991;28;20055;-78
2022/08/28 11:14:50;;;;;;;6.72;2.33;;;20.60;89.90;;;;;;5074735;28;20047;-78
2022/08/28 11:17:26;;;;;;;8.63;2.58;;;20.70;93.40;;;;;;5095733;28;20513;-80
2022/08/28 11:19:55;;;;;;;5.60;2.10;;;20.80;93.50;;;;;;5087757;28;20051;-76
2022/08/28 11:22:41;;;;;;;10.38;2.92;;;20.90;91.20;;;;;;5073001;28;20108;-82
2022/08/28 11:25:17;;;;;;;4.33;1.67;;;21.00;90.20;;;;;;5074006;28;20040;-82
2022/08/28 11:28:13;;;;;;;4.38;1.80;;;21.00;82.60;;;;;;5093484;28;20284;-80
2022/08/28 11:30:41;;;;;;;8.32;2.45;;;20.90;66.40;;;;;;5081275;28;20031;-81
2022/08/28 11:33:28;;;;;;;6.95;2.20;;;20.80;72.90;;;;;;5098550;28;20103;-81
2022/08/28 11:35:54;;;;;;;8.55;2.50;;;20.70;76.20;;;;;;5098855;28;20511;-80
2022/08/28 11:38:42;;;;;;;5.82;2.10;;;20.60;80.60;;;;;;5096236;28;20123;-79
2022/08/28 11:41:29;;;;;;;7.85;2.60;;;20.80;87.90;;;;;;5090250;28;20074;-80
2022/08/28 11:44:11;;;;;;;8.95;2.15;;;21.00;84.70;;;;;;5102925;28;20134;-78
2022/08/28 11:46:44;;;;;;;8.25;2.15;;;21.20;77.80;;;;;;5103711;28;20134;-75
2022/08/28 11:49:25;;;;;;;5.05;1.90;;;21.20;74.10;;;;;;5092862;28;20044;-76
2022/08/28 11:52:34;;;;;;;6.85;2.20;;;21.00;70.50;;;;;;5112606;28;20050;-76
2022/08/28 11:55:21;;;;;;;4.13;1.90;;;20.80;75.00;;;;;;5086509;28;20525;-77
2022/08/28 11:57:47;;;;;;;7.07;2.22;;;20.70;69.40;;;;;;5089433;28;20096;-79
2022/08/28 12:00:22;;;;;;;6.38;2.08;;;20.60;79.00;;;;;;5083031;28;20043;-80
2022/08/28 12:02:51;;;;;;;6.05;2.30;;;20.80;74.00;;;;;;5097777;27;20181;-78
2022/08/28 12:05:17;;;;;;;7.30;2.20;;;21.00;74.20;;;;;;5082168;28;20078;-83
2022/08/28 12:07:46;;;;;;;7.40;2.47;;;21.10;73.20;;;;;;5089399;28;20102;-80
2022/08/28 12:10:21;;;;;;;6.20;2.40;;;21.30;74.40;;;;;;5090067;28;20051;-84
2022/08/28 12:12:46;;;;;;;7.05;2.20;;;21.40;75.90;;;;;;5107454;28;20067;-80
2022/08/28 12:15:28;;;;;;;5.47;2.13;;;21.60;68.70;;;;;;5116121;27;20552;-79
2022/08/28 12:17:58;;;;;;;4.68;2.25;;;21.60;62.20;;;;;;5113618;27;20055;-79
2022/08/28 12:20:49;;;;;;;6.20;2.10;;;21.60;65.20;;;;;;5109107;27;20039;-79
2022/08/28 12:23:35;;;;;;;5.93;1.83;;;21.40;66.50;;;;;;5100931;28;20117;-80
2022/08/28 12:26:23;;;;;;;5.53;2.17;;;21.30;65.80;;;;;;5088367;28;20081;-82
2022/08/28 12:29:03;;;;;;;3.60;1.75;;;21.40;66.50;;;;;;5087239;28;20135;-81
2022/08/28 12:34:56;;;;;;;6.03;1.98;;;21.60;63.60;;;;;;5100645;28;20379;-81
2022/08/28 12:37:24;;;;;;;;;;;21.80;60.70;;;;;;5091802;28;20436;-79
2022/08/28 12:39:51;;;;;;;5.80;2.13;;;21.90;65.50;;;;;;5100923;27;19924;-78
2022/08/28 12:42:18;;;;;;;6.53;2.47;;;22.10;63.20;;;;;;5102069;28;20039;-80
2022/08/28 12:44:45;;;;;;;6.68;2.10;;;22.10;60.40;;;;;;5091195;28;20044;-79
2022/08/28 12:47:17;;;;;;;7.28;2.38;;;22.00;59.80;;;;;;5088938;28;20648;-80
2022/08/28 12:49:43;;;;;;;5.63;2.30;;;21.80;60.60;;;;;;5114099;27;20042;-81
2022/08/28 12:52:15;;;;;;;3.30;1.70;;;21.70;61.30;;;;;;5084027;27;20111;-76
2022/08/28 12:54:42;;;;;;;5.57;1.98;;;21.60;64.70;;;;;;5090155;28;20056;-78
2022/08/28 12:57:14;;;;;;;4.78;2.20;;;21.80;64.60;;;;;;5120287;27;20051;-80
2022/08/28 12:59:42;;;;;;;6.50;2.20;;;21.90;64.20;;;;;;5107852;27;20160;-81
2022/08/28 13:02:24;;;;;;;8.32;2.30;;;22.00;63.50;;;;;;5121523;27;20051;-78
2022/08/28 13:05:00;;;;;;;8.20;2.10;;;22.00;61.90;;;;;;5105016;27;20051;-82
2022/08/28 13:07:29;;;;;;;7.22;2.25;;;21.80;63.10;;;;;;5095685;28;20122;-81
2022/08/28 13:10:03;;;;;;;7.45;2.22;;;21.40;63.60;;;;;;5106220;28;20083;-81
2022/08/28 13:12:39;;;;;;;7.32;2.15;;;21.30;65.60;;;;;;5103495;28;20050;-83
2022/08/28 13:15:06;;;;;;;5.97;2.10;;;21.20;68.20;;;;;;5104128;27;20086;-80
2022/08/28 13:17:50;;;;;;;6.03;2.15;;;21.10;70.20;;;;;;5089193;28;20847;-82
2022/08/28 13:20:31;;;;;;;7.68;1.92;;;21.10;70.50;;;;;;5097971;28;20391;-82